createdAt,value
2023-04-04T00:01:28.238Z,1.70
2023-04-04T00:03:59.257Z,1.66
2023-04-04T00:06:30.200Z,1.62
2023-04-04T00:09:01.829Z,1.59
2023-04-04T00:11:32.650Z,1.55
2023-04-04T00:14:03.660Z,1.50
2023-04-04T00:16:34.692Z,1.47
2023-04-04T00:19:05.607Z,1.43
2023-04-04T00:21:36.430Z,1.37
2023-04-04T00:24:07.504Z,1.32
2023-04-04T00:26:38.246Z,1.27
2023-04-04T00:29:09.241Z,1.23
2023-04-04T00:31:39.972Z,1.18
2023-04-04T00:34:11.130Z,1.14
2023-04-04T00:36:41.870Z,1.10
2023-04-04T00:39:12.702Z,1.06
2023-04-04T00:41:43.441Z,1.03
2023-04-04T00:44:14.497Z,0.98
2023-04-04T00:46:45.540Z,0.96
2023-04-04T00:49:16.771Z,0.95
2023-04-04T00:51:47.490Z,0.91
2023-04-04T00:54:18.289Z,0.86
2023-04-04T00:56:55.229Z,0.79
2023-04-04T00:59:27.824Z,0.74
2023-04-04T01:02:00.197Z,0.70
2023-04-04T01:04:31.613Z,0.65
2023-04-04T01:07:04.972Z,0.62
2023-04-04T01:09:36.230Z,0.57
2023-04-04T01:12:07.448Z,0.54
2023-04-04T01:14:38.700Z,0.52
2023-04-04T01:17:09.740Z,0.51
2023-04-04T01:19:49.879Z,0.50
2023-04-04T01:22:24.613Z,0.49
2023-04-04T01:24:58.318Z,0.47
2023-04-04T01:27:31.553Z,0.44
2023-04-04T01:30:13.033Z,0.41
2023-04-04T01:32:50.410Z,0.39
2023-04-04T01:35:32.377Z,0.38
2023-04-04T01:38:16.124Z,0.37
2023-04-04T01:40:52.496Z,0.36
2023-04-04T01:43:24.666Z,0.33
2023-04-04T01:45:57.592Z,0.32
2023-04-04T01:48:29.136Z,0.30
2023-04-04T01:51:04.706Z,0.28
2023-04-04T01:53:37.559Z,0.26
2023-04-04T01:56:09.502Z,0.26
2023-04-04T01:58:41.299Z,0.25
2023-04-04T02:01:12.860Z,0.24
2023-04-04T02:03:44.109Z,0.24
2023-04-04T02:06:15.038Z,0.22
2023-04-04T02:08:45.975Z,0.19
2023-04-04T02:11:16.991Z,0.17
2023-04-04T02:13:47.756Z,0.16
2023-04-04T02:16:19.732Z,0.15
2023-04-04T02:18:50.599Z,0.13
2023-04-04T02:21:21.389Z,0.14
2023-04-04T02:23:52.087Z,0.13
2023-04-04T02:26:22.832Z,0.12
2023-04-04T02:28:53.537Z,0.10
2023-04-04T02:31:25.863Z,0.08
2023-04-04T02:33:57.691Z,0.05
2023-04-04T02:36:28.930Z,0.05
2023-04-04T02:39:00.361Z,0.04
2023-04-04T02:41:31.319Z,0.02
2023-04-04T02:44:02.119Z,-0.00
2023-04-04T02:46:33.082Z,-0.01
2023-04-04T02:49:06.690Z,-0.02
2023-04-04T02:51:38.029Z,-0.03
2023-04-04T02:54:10.238Z,-0.05
2023-04-04T02:56:42.596Z,-0.06
2023-04-04T02:59:13.450Z,-0.07
2023-04-04T03:01:44.262Z,-0.07
2023-04-04T03:04:15.180Z,-0.09
2023-04-04T03:06:48.362Z,-0.11
2023-04-04T03:09:19.442Z,-0.12
2023-04-04T03:11:51.863Z,-0.13
2023-04-04T03:14:22.881Z,-0.14
2023-04-04T03:16:53.893Z,-0.16
2023-04-04T03:19:25.427Z,-0.18
2023-04-04T03:21:56.439Z,-0.20
2023-04-04T03:24:28.633Z,-0.22
2023-04-04T03:27:00.979Z,-0.23
2023-04-04T03:29:32.521Z,-0.23
2023-04-04T03:32:04.042Z,-0.23
2023-04-04T03:34:34.820Z,-0.24
2023-04-04T03:37:05.693Z,-0.24
2023-04-04T03:39:36.501Z,-0.22
2023-04-04T03:42:07.860Z,-0.21
2023-04-04T03:44:40.736Z,-0.21
2023-04-04T03:47:12.432Z,-0.23
2023-04-04T03:49:43.272Z,-0.25
2023-04-04T03:52:15.882Z,-0.27
2023-04-04T03:54:46.909Z,-0.27
2023-04-04T03:57:17.688Z,-0.27
2023-04-04T03:59:48.475Z,-0.26
2023-04-04T04:02:19.197Z,-0.25
2023-04-04T04:04:50.026Z,-0.23
2023-04-04T04:07:20.897Z,-0.22
2023-04-04T04:09:51.685Z,-0.20
2023-04-04T04:12:22.451Z,-0.18
2023-04-04T04:14:55.680Z,-0.16
2023-04-04T04:17:27.264Z,-0.14
2023-04-04T04:19:58.274Z,-0.12
2023-04-04T04:22:29.327Z,-0.09
2023-04-04T04:25:00.120Z,-0.05
2023-04-04T04:27:31.441Z,-0.02
2023-04-04T04:30:02.243Z,0.02
2023-04-04T04:32:37.777Z,0.08
2023-04-04T04:35:10.915Z,0.15
2023-04-04T04:37:42.086Z,0.25
2023-04-04T04:40:16.427Z,0.42
2023-04-04T04:42:53.660Z,0.59
2023-04-04T04:45:26.341Z,0.87
2023-04-04T04:48:07.764Z,1.80
2023-04-04T04:51:44.798Z,2.90
2023-04-04T04:54:39.331Z,4.50
2023-04-04T04:57:10.686Z,5.49
2023-04-04T04:59:44.041Z,6.40
2023-04-04T05:02:15.512Z,7.33
2023-04-04T05:04:48.023Z,8.23
2023-04-04T05:07:19.623Z,9.15
2023-04-04T05:09:51.436Z,10.00
2023-04-04T05:12:24.767Z,10.85
2023-04-04T05:14:57.293Z,11.61
2023-04-04T05:17:28.766Z,12.17
2023-04-04T05:20:02.814Z,12.65
2023-04-04T05:22:33.569Z,13.24
2023-04-04T05:25:04.554Z,13.86
2023-04-04T05:27:35.624Z,14.50
2023-04-04T05:30:07.930Z,15.18
2023-04-04T05:32:47.546Z,15.85
2023-04-04T05:35:26.152Z,16.48
2023-04-04T05:37:57.400Z,17.07
2023-04-04T05:40:28.764Z,17.64
2023-04-04T05:43:09.541Z,18.22
2023-04-04T05:46:38.563Z,18.68
2023-04-04T05:49:10.965Z,19.12
2023-04-04T05:51:47.484Z,19.41
2023-04-04T05:54:20.754Z,19.78
2023-04-04T05:56:51.680Z,20.13
2023-04-04T05:59:40.495Z,20.48
2023-04-04T06:04:48.368Z,21.24
2023-04-04T06:07:24.224Z,21.68
2023-04-04T06:09:54.964Z,22.08
2023-04-04T06:12:32.084Z,22.43
2023-04-04T06:16:19.592Z,22.75
2023-04-04T06:19:01.401Z,23.13
2023-04-04T06:26:05.381Z,23.75
2023-04-04T06:28:37.781Z,23.88
2023-04-04T06:31:09.841Z,24.12
2023-04-04T06:33:40.700Z,24.38
2023-04-04T06:36:11.578Z,24.57
2023-04-04T06:38:42.429Z,24.80
2023-04-04T06:41:20.200Z,24.99
2023-04-04T06:43:53.424Z,25.12
2023-04-04T06:46:25.355Z,25.18
2023-04-04T06:48:56.154Z,25.26
2023-04-04T06:51:27.266Z,24.77
2023-04-04T06:53:58.280Z,24.73
2023-04-04T06:56:29.427Z,24.76
2023-04-04T06:59:02.180Z,24.75
2023-04-04T07:01:36.610Z,24.57
2023-04-04T07:04:06.111Z,24.14
2023-04-04T07:06:37.319Z,23.81
2023-04-04T07:09:15.369Z,23.88
2023-04-04T07:11:52.987Z,24.21
2023-04-04T07:14:25.773Z,24.50
2023-04-04T07:16:57.158Z,24.76
2023-04-04T07:19:28.944Z,24.94
2023-04-04T07:21:59.662Z,24.95
2023-04-04T07:24:30.356Z,24.65
2023-04-04T07:27:01.170Z,24.42
2023-04-04T07:29:32.226Z,24.47
2023-04-04T07:32:03.015Z,24.44
2023-04-04T07:34:33.774Z,23.85
2023-04-04T07:37:04.637Z,23.89
2023-04-04T07:39:35.348Z,24.24
2023-04-04T07:42:06.279Z,24.63
2023-04-04T07:44:36.998Z,24.46
2023-04-04T07:47:10.214Z,24.13
2023-04-04T07:49:41.603Z,24.25
2023-04-04T07:52:12.620Z,24.43
2023-04-04T07:54:43.368Z,23.96
2023-04-04T07:57:14.514Z,23.54
2023-04-04T07:59:45.432Z,23.27
2023-04-04T08:02:16.140Z,22.80
2023-04-04T08:04:47.024Z,21.92
2023-04-04T08:07:17.786Z,20.93
2023-04-04T08:09:48.620Z,20.10
2023-04-04T08:12:19.528Z,19.89
2023-04-04T08:14:51.010Z,19.19
2023-04-04T08:17:22.149Z,18.35
2023-04-04T08:19:53.439Z,17.44
2023-04-04T08:22:24.184Z,16.68
2023-04-04T08:24:54.910Z,16.41
2023-04-04T08:27:25.623Z,16.10
2023-04-04T08:29:56.455Z,15.77
2023-04-04T08:32:27.644Z,15.65
2023-04-04T08:34:58.324Z,15.75
2023-04-04T08:37:29.663Z,15.81
2023-04-04T08:40:00.630Z,15.63
2023-04-04T08:42:35.868Z,15.25
2023-04-04T08:45:08.105Z,14.68
2023-04-04T08:47:40.920Z,14.14
2023-04-04T08:50:12.110Z,13.62
2023-04-04T08:52:44.897Z,13.09
2023-04-04T08:55:16.343Z,12.59
2023-04-04T08:57:47.749Z,12.16
2023-04-04T09:00:21.601Z,11.88
2023-04-04T09:03:02.369Z,11.66
2023-04-04T09:05:33.994Z,11.60
2023-04-04T09:08:06.243Z,11.50
2023-04-04T09:10:38.006Z,11.33
2023-04-04T09:13:15.968Z,11.11
2023-04-04T09:15:50.215Z,10.93
2023-04-04T09:18:20.980Z,10.69
2023-04-04T09:20:52.220Z,10.46
2023-04-04T09:23:24.281Z,10.24
2023-04-04T09:26:04.113Z,10.07
2023-04-04T09:28:36.780Z,9.94
2023-04-04T09:31:10.511Z,9.80
2023-04-04T09:33:41.703Z,9.66
2023-04-04T09:36:14.746Z,9.49
2023-04-04T09:38:49.076Z,9.59
2023-04-04T09:41:22.039Z,9.86
2023-04-04T09:43:53.848Z,10.14
2023-04-04T09:46:25.713Z,10.24
2023-04-04T09:48:56.557Z,10.19
2023-04-04T09:51:34.595Z,10.04
2023-04-04T09:54:10.771Z,9.90
2023-04-04T09:56:45.041Z,9.85
2023-04-04T09:59:18.175Z,10.09
2023-04-04T10:01:51.416Z,10.43
2023-04-04T10:04:24.832Z,10.57
2023-04-04T10:06:58.176Z,10.58
2023-04-04T10:09:29.507Z,10.45
2023-04-04T10:12:12.455Z,10.25
2023-04-04T10:14:43.512Z,10.00
2023-04-04T10:17:16.798Z,9.84
2023-04-04T10:19:47.865Z,9.90
2023-04-04T10:22:20.021Z,9.95
2023-04-04T10:24:51.109Z,9.96
2023-04-04T10:27:22.050Z,9.89
2023-04-04T10:29:52.934Z,9.74
2023-04-04T10:32:34.982Z,9.52
2023-04-04T10:35:11.004Z,9.32
2023-04-04T10:37:46.995Z,9.15
2023-04-04T10:40:20.611Z,9.07
2023-04-04T10:42:53.024Z,9.03
2023-04-04T10:45:24.667Z,9.04
2023-04-04T10:47:57.045Z,9.04
2023-04-04T10:50:28.800Z,8.96
2023-04-04T10:53:02.342Z,8.84
2023-04-04T10:55:33.903Z,8.75
2023-04-04T10:58:04.877Z,8.69
2023-04-04T11:00:50.143Z,8.63
2023-04-04T11:03:21.006Z,8.56
2023-04-04T11:05:55.668Z,8.46
2023-04-04T11:08:28.606Z,8.40
2023-04-04T11:11:05.012Z,8.34
2023-04-04T11:13:40.052Z,8.33
2023-04-04T11:16:16.037Z,8.36
2023-04-04T11:18:49.950Z,8.37
2023-04-04T11:21:24.855Z,8.33
2023-04-04T11:24:18.327Z,8.25
2023-04-04T11:26:49.913Z,8.12
2023-04-04T11:29:43.008Z,7.95
2023-04-04T11:32:45.978Z,7.68
2023-04-04T11:35:23.409Z,7.35
2023-04-04T11:38:03.946Z,7.16
2023-04-04T11:40:43.673Z,6.97
2023-04-04T11:43:17.058Z,6.83
2023-04-04T11:45:49.505Z,6.76
2023-04-04T11:48:23.774Z,6.72
2023-04-04T11:50:55.966Z,6.71
2023-04-04T11:53:26.795Z,6.77
2023-04-04T11:55:57.947Z,6.86
2023-04-04T11:58:29.662Z,6.94
2023-04-04T12:01:00.964Z,6.98
2023-04-04T12:03:32.485Z,6.94
2023-04-04T12:06:04.521Z,6.86
2023-04-04T12:08:36.000Z,6.77
2023-04-04T12:11:10.786Z,6.67
2023-04-04T12:13:46.099Z,6.57
2023-04-04T12:16:15.910Z,6.45
2023-04-04T12:18:48.056Z,6.36
2023-04-04T12:21:19.014Z,6.25
2023-04-04T12:23:50.980Z,6.15
2023-04-04T12:26:22.514Z,6.08
2023-04-04T12:31:53.497Z,6.00
2023-04-04T12:37:05.451Z,6.05
2023-04-04T12:39:36.542Z,6.08
2023-04-04T12:42:07.757Z,6.09
2023-04-04T12:44:40.752Z,6.13
2023-04-04T12:47:16.045Z,6.14
2023-04-04T12:49:49.379Z,6.15
2023-04-04T12:52:22.043Z,6.19
2023-04-04T12:55:07.009Z,6.24
2023-04-04T12:57:40.037Z,6.28
2023-04-04T13:00:14.079Z,6.31
2023-04-04T13:02:51.146Z,6.34
2023-04-04T13:05:26.170Z,6.37
2023-04-04T13:08:08.906Z,6.39
2023-04-04T13:11:04.868Z,6.38
2023-04-04T13:13:40.882Z,6.36
2023-04-04T13:16:12.896Z,6.32
2023-04-04T13:18:45.208Z,6.26
2023-04-04T13:21:16.020Z,6.22
2023-04-04T13:23:48.284Z,6.20
2023-04-04T13:26:19.020Z,6.20
2023-04-04T13:28:49.965Z,6.23
2023-04-04T13:31:21.717Z,6.26
2023-04-04T13:33:52.687Z,6.30
2023-04-04T13:36:23.662Z,6.33
2023-04-04T13:38:54.529Z,6.30
2023-04-04T13:41:25.421Z,6.28
2023-04-04T13:43:56.740Z,6.28
2023-04-04T13:46:27.491Z,6.30
2023-04-04T13:48:58.266Z,6.33
2023-04-04T13:51:29.540Z,6.36
2023-04-04T13:54:00.723Z,6.38
2023-04-04T13:56:31.548Z,6.41
2023-04-04T13:59:02.267Z,6.45
2023-04-04T14:01:33.158Z,6.49
2023-04-04T14:04:13.212Z,6.51
2023-04-04T14:06:49.436Z,6.53
2023-04-04T14:09:20.248Z,6.57
2023-04-04T14:11:51.246Z,6.59
2023-04-04T14:14:21.994Z,6.59
2023-04-04T14:16:53.138Z,6.59
2023-04-04T14:19:31.304Z,6.59
2023-04-04T14:22:14.674Z,6.55
2023-04-04T14:24:45.555Z,6.56
2023-04-04T14:27:16.370Z,6.56
2023-04-04T14:29:47.274Z,6.58
2023-04-04T14:32:19.248Z,6.62
2023-04-04T14:34:50.196Z,6.67
2023-04-04T14:37:21.011Z,6.68
2023-04-04T14:39:52.444Z,6.65
2023-04-04T14:42:23.192Z,6.65
2023-04-04T14:44:53.944Z,6.65
2023-04-04T14:47:24.750Z,6.67
2023-04-04T14:49:56.001Z,6.67
2023-04-04T14:52:28.856Z,6.65
2023-04-04T14:55:02.638Z,6.61
2023-04-04T14:57:39.094Z,6.59
2023-04-04T15:00:20.595Z,6.54
2023-04-04T15:02:51.559Z,6.50
2023-04-04T15:05:24.130Z,6.45
2023-04-04T15:07:55.852Z,6.40
2023-04-04T15:10:26.746Z,6.35
2023-04-04T15:12:57.640Z,6.34
2023-04-04T15:15:29.356Z,6.27
2023-04-04T15:18:00.525Z,6.22
2023-04-04T15:20:31.479Z,6.19
2023-04-04T15:23:02.312Z,6.14
2023-04-04T15:25:33.355Z,6.11
2023-04-04T15:28:04.150Z,6.07
2023-04-04T15:30:37.253Z,6.03
2023-04-04T15:33:08.248Z,6.00
2023-04-04T15:35:55.603Z,5.97
2023-04-04T15:38:40.546Z,5.94
2023-04-04T15:41:12.264Z,5.90
2023-04-04T15:43:48.582Z,5.86
2023-04-04T15:46:19.418Z,5.80
2023-04-04T15:48:52.022Z,5.75
2023-04-04T15:51:55.853Z,5.73
2023-04-04T15:54:28.994Z,5.67
2023-04-04T15:57:24.108Z,5.65
2023-04-04T16:09:05.478Z,5.40
2023-04-04T16:11:36.691Z,5.33
2023-04-04T16:19:00.350Z,5.24
2023-04-04T16:21:31.558Z,5.22
2023-04-04T16:24:10.251Z,5.18
2023-04-04T16:27:39.420Z,5.16
2023-04-04T16:34:30.005Z,5.12
2023-04-04T16:37:58.985Z,5.10
2023-04-04T16:40:30.116Z,5.07
2023-04-04T16:46:39.179Z,5.05
2023-04-04T16:49:09.966Z,5.04
2023-04-04T16:51:40.728Z,5.04
2023-04-04T16:54:12.721Z,5.03
2023-04-04T16:56:52.676Z,5.02
2023-04-04T16:59:23.478Z,5.01
2023-04-04T17:01:54.300Z,5.01
2023-04-04T17:04:25.067Z,4.99
2023-04-04T17:06:56.147Z,4.98
2023-04-04T17:09:27.804Z,4.95
2023-04-04T17:11:59.310Z,4.92
2023-04-04T17:14:30.530Z,4.91
2023-04-04T17:17:01.626Z,4.90
2023-04-04T17:19:35.273Z,4.89
2023-04-04T17:22:06.813Z,4.89
2023-04-04T17:24:37.776Z,4.89
2023-04-04T17:27:08.747Z,4.89
2023-04-04T17:29:39.553Z,4.88
2023-04-04T17:32:10.600Z,4.86
2023-04-04T17:34:42.329Z,4.84
2023-04-04T17:37:13.388Z,4.81
2023-04-04T17:39:45.548Z,4.79
2023-04-04T17:42:16.468Z,4.78
2023-04-04T17:44:47.315Z,4.77
2023-04-04T17:47:19.638Z,4.75
2023-04-04T17:50:15.875Z,4.73
2023-04-04T17:52:46.972Z,4.72
2023-04-04T17:55:19.169Z,4.72
2023-04-04T17:57:50.100Z,4.71
2023-04-04T18:00:23.104Z,4.70
2023-04-04T18:02:55.549Z,4.69
2023-04-04T18:05:27.207Z,4.68
2023-04-04T18:11:00.203Z,4.65
2023-04-04T18:13:40.045Z,4.64
2023-04-04T18:16:14.610Z,4.64
2023-04-04T18:18:48.176Z,4.63
2023-04-04T18:21:19.239Z,4.62
2023-04-04T18:23:50.287Z,4.60
2023-04-04T18:26:26.485Z,4.59
2023-04-04T18:28:57.391Z,4.58
2023-04-04T18:31:44.655Z,4.57
2023-04-04T18:34:16.845Z,4.54
2023-04-04T18:36:49.733Z,4.52
2023-04-04T18:39:23.172Z,4.47
2023-04-04T18:41:55.176Z,4.43
2023-04-04T18:44:25.893Z,4.40
2023-04-04T18:46:58.756Z,4.36
2023-04-04T18:49:29.615Z,4.32
2023-04-04T18:52:00.522Z,4.28
2023-04-04T18:54:31.453Z,4.24
2023-04-04T18:57:02.333Z,4.19
2023-04-04T18:59:33.190Z,4.15
2023-04-04T19:02:04.120Z,4.13
2023-04-04T19:04:38.028Z,4.11
2023-04-04T19:07:12.141Z,4.08
2023-04-04T19:09:44.926Z,4.05
2023-04-04T19:12:15.624Z,4.03
2023-04-04T19:14:46.360Z,4.02
2023-04-04T19:17:18.257Z,4.01
2023-04-04T19:19:58.231Z,3.98
2023-04-04T19:22:29.561Z,3.97
2023-04-04T19:25:00.409Z,3.95
2023-04-04T19:27:31.290Z,3.92
2023-04-04T19:30:02.032Z,3.90
2023-04-04T19:32:33.399Z,3.89
2023-04-04T19:35:23.295Z,3.87
2023-04-04T19:37:54.090Z,3.84
2023-04-04T19:40:49.816Z,3.81
2023-04-04T19:43:22.553Z,3.77
2023-04-04T19:45:57.396Z,3.74
2023-04-04T19:48:49.136Z,3.71
2023-04-04T19:55:42.312Z,3.63
2023-04-04T19:58:22.495Z,3.60
2023-04-04T20:01:08.194Z,3.55
2023-04-04T20:03:41.363Z,3.49
2023-04-04T20:06:24.058Z,3.45
2023-04-04T20:08:55.832Z,3.41
2023-04-04T20:11:33.812Z,3.37
2023-04-04T20:14:10.912Z,3.32
2023-04-04T20:16:42.250Z,3.27
2023-04-04T20:19:25.625Z,3.22
2023-04-04T20:21:56.894Z,3.19
2023-04-04T20:24:28.667Z,3.15
2023-04-04T20:27:10.514Z,3.09
2023-04-04T20:29:41.856Z,3.03
2023-04-04T20:32:12.832Z,2.99
2023-04-04T20:34:53.050Z,2.95
2023-04-04T20:37:32.835Z,2.91
2023-04-04T20:40:13.535Z,2.87
2023-04-04T20:42:44.777Z,2.83
2023-04-04T20:45:45.005Z,2.82
2023-04-04T20:48:39.802Z,2.78
2023-04-04T20:51:25.795Z,2.76
2023-04-04T20:53:58.367Z,2.73
2023-04-04T20:56:52.471Z,2.70
2023-04-04T20:59:33.335Z,2.67
2023-04-04T21:02:19.848Z,2.66
2023-04-04T21:04:52.308Z,2.66
2023-04-04T21:07:43.783Z,2.66
2023-04-04T21:10:45.028Z,2.65
2023-04-04T21:13:16.302Z,2.62
2023-04-04T21:15:47.135Z,2.61
2023-04-04T21:18:28.864Z,2.58
2023-04-04T21:21:18.864Z,2.55
2023-04-04T21:23:54.365Z,2.51
2023-04-04T21:26:40.239Z,2.47
2023-04-04T21:29:17.840Z,2.43
2023-04-04T21:31:50.253Z,2.38
2023-04-04T21:34:23.220Z,2.31
2023-04-04T21:36:56.428Z,2.26
2023-04-04T21:39:29.698Z,2.21
2023-04-04T21:42:03.714Z,2.16
2023-04-04T21:44:36.427Z,2.09
2023-04-04T21:47:07.542Z,2.05
2023-04-04T21:49:38.498Z,2.02
2023-04-04T21:52:09.392Z,1.98
2023-04-04T21:54:40.321Z,1.95
2023-04-04T21:57:11.436Z,1.93
2023-04-04T21:59:42.674Z,1.92
2023-04-04T22:02:13.990Z,1.87
2023-04-04T22:04:44.944Z,1.85
2023-04-04T22:07:15.882Z,1.80
2023-04-04T22:09:46.753Z,1.76
2023-04-04T22:12:19.600Z,1.72
2023-04-04T22:14:51.330Z,1.69
2023-04-04T22:17:23.985Z,1.65
2023-04-04T22:20:00.302Z,1.62
2023-04-04T22:22:32.743Z,1.55
2023-04-04T22:25:06.269Z,1.48
2023-04-04T22:27:38.255Z,1.42
2023-04-04T22:30:39.034Z,1.33
2023-04-04T22:34:14.142Z,1.26
2023-04-04T22:36:45.964Z,1.17
2023-04-04T22:39:20.513Z,1.12
2023-04-04T22:41:52.035Z,1.08
2023-04-04T22:44:22.942Z,1.04
2023-04-04T22:46:54.777Z,1.00
2023-04-04T22:49:25.586Z,0.99
2023-04-04T22:51:56.419Z,0.95
2023-04-04T22:54:27.487Z,0.93
2023-04-04T22:56:58.827Z,0.89
2023-04-04T22:59:29.818Z,0.87
2023-04-04T23:02:00.927Z,0.84
2023-04-04T23:04:31.688Z,0.82
2023-04-04T23:07:02.706Z,0.80
2023-04-04T23:09:34.451Z,0.77
2023-04-04T23:12:05.596Z,0.73
2023-04-04T23:14:39.150Z,0.70
2023-04-04T23:17:10.978Z,0.68
2023-04-04T23:19:42.133Z,0.66
2023-04-04T23:22:13.036Z,0.64
2023-04-04T23:24:44.795Z,0.62
2023-04-04T23:27:16.214Z,0.62
2023-04-04T23:29:47.559Z,0.61
2023-04-04T23:32:18.370Z,0.60
2023-04-04T23:34:49.219Z,0.60
2023-04-04T23:37:20.059Z,0.57
2023-04-04T23:39:50.926Z,0.54
2023-04-04T23:42:21.780Z,0.52
2023-04-04T23:44:52.657Z,0.50
2023-04-04T23:47:23.595Z,0.48
2023-04-04T23:49:54.402Z,0.47
2023-04-04T23:52:25.444Z,0.47
2023-04-04T23:54:56.204Z,0.49
2023-04-04T23:57:26.929Z,0.49
2023-04-04T23:59:57.684Z,0.50
